createdAt,value
2023-03-28T00:02:28.457Z,0.93
2023-03-28T00:05:52.525Z,1.20
2023-03-28T00:09:04.408Z,1.17
2023-03-28T00:12:17.526Z,1.03
2023-03-28T00:15:31.499Z,1.17
2023-03-28T00:18:43.576Z,0.90
2023-03-28T00:21:59.453Z,1.50
2023-03-28T00:25:23.503Z,1.35
2023-03-28T00:28:23.508Z,0.90
2023-03-28T00:31:49.566Z,1.20
2023-03-28T00:34:49.591Z,1.20
2023-03-28T00:38:17.629Z,1.50
2023-03-28T00:41:32.552Z,1.40
2023-03-28T00:45:06.578Z,1.23
2023-03-28T00:48:20.596Z,1.60
2023-03-28T00:51:47.568Z,1.73
2023-03-28T00:54:59.669Z,1.37
2023-03-28T00:58:24.616Z,0.80
2023-03-28T01:01:36.652Z,1.50
2023-03-28T01:05:05.692Z,1.10
2023-03-28T01:08:17.646Z,1.10
2023-03-28T01:11:41.686Z,1.20
2023-03-28T01:15:06.679Z,1.10
2023-03-28T01:18:30.630Z,1.10
2023-03-28T01:22:11.674Z,1.00
2023-03-28T01:25:46.707Z,1.00
2023-03-28T01:29:26.744Z,1.03
2023-03-28T01:33:13.677Z,1.10
2023-03-28T01:36:43.727Z,1.10
2023-03-28T01:40:11.709Z,1.10
2023-03-28T01:43:40.770Z,1.35
2023-03-28T01:47:08.787Z,1.20
2023-03-28T01:50:32.813Z,1.23
2023-03-28T01:53:56.738Z,1.33
2023-03-28T01:57:23.869Z,1.40
2023-03-28T02:00:48.910Z,1.37
2023-03-28T02:04:20.392Z,1.10
2023-03-28T02:07:39.952Z,1.00
2023-03-28T02:11:05.962Z,0.87
2023-03-28T02:14:31.871Z,0.77
2023-03-28T02:17:58.833Z,0.90
2023-03-28T02:21:22.882Z,1.33
2023-03-28T02:24:35.923Z,1.85
2023-03-28T02:27:59.867Z,0.77
2023-03-28T02:31:26.965Z,0.80
2023-03-28T02:34:30.862Z,1.17
2023-03-28T02:37:55.964Z,1.00
2023-03-28T02:41:19.888Z,1.10
2023-03-28T02:44:46.911Z,0.67
2023-03-28T02:48:12.906Z,1.20
2023-03-28T02:51:38.000Z,0.83
2023-03-28T02:55:01.978Z,1.00
2023-03-28T02:58:30.026Z,0.90
2023-03-28T03:01:54.113Z,0.87
2023-03-28T03:05:06.989Z,0.93
2023-03-28T03:08:20.029Z,1.17
2023-03-28T03:11:20.092Z,1.07
2023-03-28T03:14:32.014Z,1.20
2023-03-28T03:17:45.131Z,1.23
2023-03-28T03:21:12.125Z,0.97
2023-03-28T03:24:24.118Z,0.80
2023-03-28T03:27:36.112Z,1.00
2023-03-28T03:31:00.156Z,0.57
2023-03-28T03:34:13.088Z,1.50
2023-03-28T03:37:38.050Z,1.20
2023-03-28T03:40:50.137Z,0.70
2023-03-28T03:44:02.219Z,0.97
2023-03-28T03:47:27.177Z,1.30
2023-03-28T03:50:30.153Z,0.73
2023-03-28T03:53:57.213Z,1.37
2023-03-28T03:57:10.217Z,0.77
2023-03-28T04:00:24.223Z,0.80
2023-03-28T04:03:49.190Z,0.90
2023-03-28T04:07:01.223Z,1.10
2023-03-28T04:10:26.242Z,1.00
2023-03-28T04:13:38.287Z,0.87
2023-03-28T04:16:50.171Z,0.57
2023-03-28T04:20:05.268Z,0.93
2023-03-28T04:23:19.202Z,1.10
2023-03-28T04:26:44.283Z,0.87
2023-03-28T04:29:56.273Z,1.40
2023-03-28T04:33:08.310Z,0.87
2023-03-28T04:36:33.392Z,0.67
2023-03-28T04:39:34.338Z,1.10
2023-03-28T04:43:03.354Z,1.40
2023-03-28T04:46:15.507Z,1.00
2023-03-28T04:49:39.346Z,1.05
2023-03-28T04:52:39.379Z,1.37
2023-03-28T04:55:51.544Z,0.90
2023-03-28T04:59:19.367Z,0.90
2023-03-28T05:02:31.437Z,0.93
2023-03-28T05:05:55.352Z,1.05
2023-03-28T05:09:07.412Z,1.05
2023-03-28T05:12:24.363Z,0.80
2023-03-28T05:15:50.363Z,0.80
2023-03-28T05:19:03.453Z,0.93
2023-03-28T05:22:16.437Z,1.17
2023-03-28T05:25:30.497Z,0.80
2023-03-28T05:28:43.406Z,1.15
2023-03-28T05:31:56.448Z,0.80
2023-03-28T05:35:08.442Z,0.70
2023-03-28T05:38:08.516Z,0.83
2023-03-28T05:41:23.453Z,1.00
2023-03-28T05:44:35.567Z,0.87
2023-03-28T05:48:02.564Z,1.07
2023-03-28T05:51:14.572Z,0.70
2023-03-28T05:54:26.447Z,1.00
2023-03-28T05:57:38.502Z,0.90
2023-03-28T06:01:03.581Z,0.80
2023-03-28T06:04:30.590Z,1.00
2023-03-28T06:07:43.524Z,1.00
2023-03-28T06:10:55.624Z,0.70
2023-03-28T06:14:08.567Z,0.95
2023-03-28T06:17:32.613Z,0.80
2023-03-28T06:20:58.890Z,0.90
2023-03-28T06:24:11.622Z,1.70
2023-03-28T06:27:36.620Z,0.93
2023-03-28T06:30:48.657Z,0.97
2023-03-28T06:34:00.646Z,1.53
2023-03-28T06:37:27.644Z,1.03
2023-03-28T06:40:51.624Z,1.27
2023-03-28T06:44:04.620Z,0.80
2023-03-28T06:47:16.685Z,0.87
2023-03-28T06:50:28.742Z,0.90
2023-03-28T06:53:53.681Z,1.20
2023-03-28T06:57:05.766Z,1.33
2023-03-28T07:00:30.735Z,0.80
2023-03-28T07:03:43.761Z,1.33
2023-03-28T07:06:56.757Z,1.50
2023-03-28T07:10:22.752Z,0.90
2023-03-28T07:13:37.798Z,1.30
2023-03-28T07:16:49.828Z,1.03
2023-03-28T07:19:49.757Z,0.87
2023-03-28T07:23:01.791Z,1.20
2023-03-28T07:26:27.756Z,1.20
2023-03-28T07:29:40.874Z,1.00
2023-03-28T07:33:18.447Z,0.90
2023-03-28T07:36:32.837Z,1.80
2023-03-28T07:39:56.880Z,1.37
2023-03-28T07:43:21.835Z,1.57
2023-03-28T07:46:33.876Z,1.15
2023-03-28T07:49:49.927Z,1.25
2023-03-28T07:52:50.937Z,1.47
2023-03-28T07:56:03.915Z,1.30
2023-03-28T07:59:30.948Z,1.40
2023-03-28T08:02:45.990Z,1.10
2023-03-28T08:06:24.381Z,1.50
2023-03-28T08:09:22.001Z,1.67
2023-03-28T08:12:35.067Z,1.30
2023-03-28T08:15:54.892Z,1.17
2023-03-28T08:19:16.977Z,1.40
2023-03-28T08:22:29.985Z,1.27
2023-03-28T08:25:42.953Z,1.30
2023-03-28T08:28:54.981Z,1.63
2023-03-28T08:32:22.096Z,1.20
2023-03-28T08:35:34.053Z,1.03
2023-03-28T08:38:50.132Z,1.33
2023-03-28T08:42:08.063Z,0.73
2023-03-28T08:45:37.019Z,0.87
2023-03-28T08:48:51.068Z,1.05
2023-03-28T08:52:16.135Z,1.57
2023-03-28T08:55:43.096Z,1.47
2023-03-28T08:59:08.071Z,1.77
2023-03-28T09:02:23.162Z,1.17
2023-03-28T09:05:50.179Z,1.37
2023-03-28T09:09:07.176Z,0.93
2023-03-28T09:12:34.124Z,1.13
2023-03-28T09:15:56.262Z,1.87
2023-03-28T09:19:47.675Z,1.10
2023-03-28T09:23:09.207Z,1.07
2023-03-28T09:26:33.158Z,1.00
2023-03-28T09:29:58.272Z,1.17
2023-03-28T09:33:23.229Z,1.13
2023-03-28T09:36:49.614Z,1.30
2023-03-28T09:40:14.318Z,1.30
2023-03-28T09:43:39.232Z,1.10
2023-03-28T09:47:04.201Z,1.30
2023-03-28T09:50:28.264Z,1.17
2023-03-28T09:53:55.306Z,1.33
2023-03-28T09:57:21.310Z,1.50
2023-03-28T10:00:46.297Z,1.27
2023-03-28T10:04:16.354Z,0.95
2023-03-28T10:07:55.303Z,0.97
2023-03-28T10:11:21.314Z,1.20
2023-03-28T10:14:34.347Z,1.25
2023-03-28T10:17:59.348Z,1.20
2023-03-28T10:21:26.423Z,0.70
2023-03-28T10:24:39.444Z,0.77
2023-03-28T10:27:51.418Z,0.97
2023-03-28T10:31:18.386Z,0.70
2023-03-28T10:34:48.553Z,1.10
2023-03-28T10:38:01.392Z,0.80
2023-03-28T10:41:26.455Z,0.90
2023-03-28T10:44:54.397Z,1.10
2023-03-28T10:48:21.423Z,0.53
2023-03-28T10:51:46.505Z,1.40
2023-03-28T10:55:16.459Z,0.90
2023-03-28T10:58:41.473Z,1.53
2023-03-28T11:02:06.554Z,0.90
2023-03-28T11:05:36.523Z,1.10
2023-03-28T11:09:01.426Z,0.80
2023-03-28T11:12:29.182Z,1.10
2023-03-28T11:15:52.541Z,0.70
2023-03-28T11:19:19.616Z,0.80
2023-03-28T11:22:58.920Z,1.10
2023-03-28T11:26:10.485Z,1.27
2023-03-28T11:29:44.397Z,0.90
2023-03-28T11:33:08.625Z,1.20
2023-03-28T11:36:32.645Z,1.00
2023-03-28T11:39:59.571Z,0.80
2023-03-28T11:43:24.567Z,0.87
2023-03-28T11:46:48.597Z,1.10
2023-03-28T11:50:13.624Z,1.00
2023-03-28T11:53:41.724Z,1.07
2023-03-28T11:57:08.722Z,1.33
2023-03-28T12:00:34.321Z,0.97
2023-03-28T12:03:57.861Z,1.03
2023-03-28T12:07:25.713Z,1.07
2023-03-28T12:10:52.672Z,1.07
2023-03-28T12:14:18.701Z,1.10
2023-03-28T12:17:45.753Z,1.33
2023-03-28T12:21:10.712Z,1.40
2023-03-28T12:24:36.699Z,1.57
2023-03-28T12:28:03.812Z,1.20
2023-03-28T12:31:30.775Z,1.15
2023-03-28T12:34:54.814Z,1.10
2023-03-28T12:38:27.750Z,1.30
2023-03-28T12:41:53.812Z,1.30
2023-03-28T12:45:17.777Z,1.20
2023-03-28T12:48:43.791Z,1.20
2023-03-28T12:52:09.840Z,1.17
2023-03-28T12:55:37.824Z,1.40
2023-03-28T12:59:02.840Z,1.10
2023-03-28T13:02:27.876Z,1.30
2023-03-28T13:05:53.795Z,1.47
2023-03-28T13:09:07.889Z,1.30
2023-03-28T13:12:51.893Z,1.53
2023-03-28T13:16:13.909Z,1.60
2023-03-28T13:19:38.921Z,1.30
2023-03-28T13:22:55.956Z,1.60
2023-03-28T13:26:19.907Z,1.40
2023-03-28T13:29:31.887Z,1.37
2023-03-28T13:33:00.023Z,1.00
2023-03-28T13:36:12.032Z,1.43
2023-03-28T13:39:46.992Z,1.47
2023-03-28T13:42:49.931Z,1.53
2023-03-28T13:46:21.082Z,1.30
2023-03-28T13:49:32.984Z,1.60
2023-03-28T13:53:00.989Z,1.45
2023-03-28T13:56:15.068Z,1.37
2023-03-28T13:59:42.043Z,1.20
2023-03-28T14:02:58.082Z,1.20
2023-03-28T14:06:10.077Z,1.63
2023-03-28T14:09:22.068Z,1.63
2023-03-28T14:12:51.042Z,1.73
2023-03-28T14:16:03.072Z,2.30
2023-03-28T14:19:27.127Z,1.60
2023-03-28T14:22:52.810Z,1.53
2023-03-28T14:26:03.090Z,1.70
2023-03-28T14:29:17.171Z,2.23
2023-03-28T14:32:56.467Z,1.57
2023-03-28T14:35:57.147Z,1.67
2023-03-28T14:39:31.214Z,1.40
2023-03-28T14:42:46.168Z,1.50
2023-03-28T14:46:13.283Z,1.40
2023-03-28T14:49:28.189Z,1.60
2023-03-28T14:52:54.229Z,1.20
2023-03-28T14:55:55.180Z,1.45
2023-03-28T14:59:23.234Z,1.10
2023-03-28T15:02:42.889Z,1.60
2023-03-28T15:06:07.268Z,1.50
2023-03-28T15:09:19.266Z,1.20
2023-03-28T15:12:32.236Z,1.55
2023-03-28T15:15:44.441Z,1.50
2023-03-28T15:19:10.288Z,1.37
2023-03-28T15:22:22.234Z,1.50
2023-03-28T15:25:47.324Z,1.70
2023-03-28T15:28:59.272Z,1.45
2023-03-28T15:32:24.310Z,1.60
2023-03-28T15:35:49.312Z,1.40
2023-03-28T15:39:14.361Z,1.30
2023-03-28T15:42:26.312Z,1.60
2023-03-28T15:46:01.419Z,1.50
2023-03-28T15:49:04.293Z,1.40
2023-03-28T15:52:33.329Z,1.93
2023-03-28T15:55:45.336Z,1.47
2023-03-28T15:59:09.387Z,1.50
2023-03-28T16:02:24.429Z,1.37
2023-03-28T16:05:50.349Z,1.57
2023-03-28T16:09:04.365Z,1.50
2023-03-28T16:12:31.399Z,1.90
2023-03-28T16:15:44.603Z,1.80
2023-03-28T16:19:09.428Z,1.73
2023-03-28T16:22:09.483Z,1.73
2023-03-28T16:25:35.481Z,1.27
2023-03-28T16:28:35.453Z,2.17
2023-03-28T16:31:47.597Z,1.80
2023-03-28T16:34:47.500Z,1.90
2023-03-28T16:37:59.487Z,1.67
2023-03-28T16:41:13.532Z,1.70
2023-03-28T16:44:25.535Z,2.00
2023-03-28T16:47:25.608Z,2.25
2023-03-28T16:50:41.612Z,2.10
2023-03-28T16:53:41.568Z,1.97
2023-03-28T16:57:10.685Z,1.70
2023-03-28T17:00:10.563Z,1.63
2023-03-28T17:03:34.657Z,1.60
2023-03-28T17:06:46.605Z,1.63
2023-03-28T17:09:59.652Z,1.57
2023-03-28T17:13:14.589Z,1.80
2023-03-28T17:16:28.724Z,1.60
2023-03-28T17:19:29.593Z,1.57
2023-03-28T17:22:41.592Z,1.73
2023-03-28T17:25:55.010Z,1.67
2023-03-28T17:29:19.702Z,2.37
2023-03-28T17:32:31.672Z,1.50
2023-03-28T17:35:44.739Z,1.70
2023-03-28T17:38:44.669Z,1.60
2023-03-28T17:41:57.745Z,1.53
2023-03-28T17:45:11.672Z,1.67
2023-03-28T17:48:24.805Z,1.90
2023-03-28T17:51:39.747Z,1.30
2023-03-28T17:54:55.938Z,1.30
2023-03-28T17:58:07.746Z,1.57
2023-03-28T18:01:33.852Z,1.90
2023-03-28T18:04:45.880Z,1.23
2023-03-28T18:07:58.826Z,1.60
2023-03-28T18:11:24.807Z,1.40
2023-03-28T18:14:24.870Z,1.97
2023-03-28T18:17:51.893Z,1.53
2023-03-28T18:20:51.880Z,1.63
2023-03-28T18:24:04.883Z,1.93
2023-03-28T18:27:04.900Z,2.03
2023-03-28T18:30:17.884Z,1.95
2023-03-28T18:33:31.872Z,2.10
2023-03-28T18:36:56.919Z,2.20
2023-03-28T18:39:59.853Z,2.03
2023-03-28T18:43:12.856Z,1.90
2023-03-28T18:46:15.659Z,1.90
2023-03-28T18:49:43.940Z,1.90
2023-03-28T18:52:55.948Z,1.83
2023-03-28T18:56:19.898Z,2.00
2023-03-28T18:59:19.988Z,1.87
2023-03-28T19:02:33.026Z,1.97
2023-03-28T19:05:46.991Z,2.70
2023-03-28T19:09:15.002Z,1.90
2023-03-28T19:12:15.090Z,1.90
2023-03-28T19:15:27.977Z,1.90
2023-03-28T19:18:29.019Z,2.03
2023-03-28T19:21:55.002Z,2.20
2023-03-28T19:24:55.075Z,2.10
2023-03-28T19:28:07.059Z,1.80
2023-03-28T19:31:22.136Z,2.10
2023-03-28T19:34:37.045Z,2.20
2023-03-28T19:37:53.059Z,1.80
2023-03-28T19:41:22.097Z,2.67
2023-03-28T19:44:22.101Z,2.30
2023-03-28T19:47:37.219Z,1.90
2023-03-28T19:50:50.204Z,2.10
2023-03-28T19:54:16.106Z,2.73
2023-03-28T19:57:31.243Z,1.90
2023-03-28T20:00:43.207Z,1.95
2023-03-28T20:04:07.234Z,1.90
2023-03-28T20:07:11.187Z,2.27
2023-03-28T20:10:38.188Z,2.25
2023-03-28T20:13:38.278Z,2.20
2023-03-28T20:17:49.747Z,2.80
2023-03-28T20:21:14.779Z,1.83
2023-03-28T20:24:14.789Z,2.07
2023-03-28T20:27:29.813Z,3.10
2023-03-28T20:30:29.863Z,2.50
2023-03-28T20:34:00.810Z,3.60
2023-03-28T20:37:00.799Z,2.30
2023-03-28T20:40:16.828Z,2.35
2023-03-28T20:43:16.887Z,3.00
2023-03-28T20:46:41.940Z,2.10
2023-03-28T20:49:56.913Z,2.97
2023-03-28T20:53:09.939Z,1.93
2023-03-28T20:56:24.833Z,2.17
2023-03-28T20:59:48.989Z,2.60
2023-03-28T21:02:48.930Z,2.80
2023-03-28T21:06:21.917Z,2.30
2023-03-28T21:09:37.026Z,1.90
2023-03-28T21:12:48.942Z,2.47
2023-03-28T21:16:00.927Z,2.27
2023-03-28T21:19:24.932Z,2.07
2023-03-28T21:22:42.019Z,2.20
2023-03-28T21:25:54.049Z,2.30
2023-03-28T21:28:55.018Z,2.17
2023-03-28T21:32:08.080Z,2.37
2023-03-28T21:35:22.993Z,2.10
2023-03-28T21:38:49.066Z,2.30
2023-03-28T21:41:50.002Z,1.90
2023-03-28T21:45:03.027Z,2.10
2023-03-28T21:48:04.079Z,2.03
2023-03-28T21:51:29.028Z,2.00
2023-03-28T21:54:43.073Z,2.10
2023-03-28T21:57:55.157Z,2.00
2023-03-28T22:00:55.139Z,2.45
2023-03-28T22:04:08.068Z,2.55
2023-03-28T22:07:09.101Z,2.30
2023-03-28T22:10:37.136Z,2.30
2023-03-28T22:13:49.108Z,2.07
2023-03-28T22:17:03.130Z,1.83
2023-03-28T22:20:07.165Z,1.87
2023-03-28T22:23:21.180Z,2.00
2023-03-28T22:26:35.168Z,2.20
2023-03-28T22:29:47.195Z,2.33
2023-03-28T22:32:47.243Z,2.03
2023-03-28T22:36:12.256Z,1.70
2023-03-28T22:39:12.208Z,1.73
2023-03-28T22:42:38.261Z,1.73
2023-03-28T22:45:50.199Z,1.60
2023-03-28T22:49:03.194Z,1.70
2023-03-28T22:52:03.210Z,1.50
2023-03-28T22:55:20.256Z,1.80
2023-03-28T22:58:34.307Z,1.63
2023-03-28T23:01:47.291Z,1.40
2023-03-28T23:04:47.333Z,1.50
2023-03-28T23:07:59.238Z,1.60
2023-03-28T23:10:59.454Z,1.73
2023-03-28T23:14:28.269Z,1.70
2023-03-28T23:17:28.481Z,1.60
2023-03-28T23:20:43.322Z,1.65
2023-03-28T23:23:55.364Z,1.60
2023-03-28T23:27:19.389Z,1.30
2023-03-28T23:30:33.362Z,1.70
2023-03-28T23:33:48.414Z,1.70
2023-03-28T23:36:48.389Z,1.60
2023-03-28T23:40:00.396Z,1.90
2023-03-28T23:43:00.402Z,1.53
2023-03-28T23:46:26.672Z,1.53
2023-03-28T23:49:26.424Z,1.83
2023-03-28T23:52:38.435Z,1.57
2023-03-28T23:55:38.464Z,1.60
2023-03-28T23:58:50.474Z,1.70
